Time;durP1;ratioP1;P1;durP2;ratioP2;P2;SDS_P1;SDS_P2;PMS_P1;PMS_P2;Temp;Humidity;BMP_temperature;BMP_pressure;BME280_temperature;BME280_humidity;BME280_pressure;Samples;Min_cycle;Max_cycle;Signal;HPM_P1;HPM_P2
2023/12/27 09:09:58;;;;;;;;;2.00;2.00;;;;;22.53;46.93;101355.41;5417982;23;46557;-73
2023/12/27 09:12:23;;;;;;;;;3.00;3.00;;;;;22.54;46.58;101362.34;4933854;28;45444;-76
2023/12/27 09:14:48;;;;;;;;;2.00;2.00;;;;;22.45;46.93;101355.41;4936261;28;45421;-75
2023/12/27 09:17:15;;;;;;;;;3.33;2.67;;;;;22.61;47.15;101373.91;4936295;28;46162;-76
2023/12/27 09:19:41;;;;;;;;;3.00;3.00;;;;;22.46;46.87;101344.63;4936609;28;45577;-76
2023/12/27 09:22:07;;;;;;;;;3.00;3.00;;;;;22.62;46.65;101364.13;4936587;28;45329;-76
2023/12/27 09:24:33;;;;;;;;;3.00;3.00;;;;;22.61;46.47;101352.69;4937386;28;45216;-76
2023/12/27 09:26:58;;;;;;;;;4.00;4.00;;;;;22.44;46.91;101317.47;4936650;28;47100;-77
2023/12/27 09:29:23;;;;;;;;;5.33;3.33;;;;;22.49;46.89;101324.91;4934176;28;45516;-77
2023/12/27 09:31:49;;;;;;;;;3.33;3.33;;;;;22.61;46.47;101335.97;4937079;28;45338;-76
2023/12/27 09:34:14;;;;;;;;;5.33;5.00;;;;;22.56;46.56;101336.47;4937504;28;45351;-76
2023/12/27 09:36:39;;;;;;;;;5.00;3.33;;;;;22.49;46.15;101332.84;4936920;28;46052;-77
2023/12/27 09:39:05;;;;;;;;;2.00;2.00;;;;;22.59;46.63;101345.91;4936597;28;45362;-78
2023/12/27 09:41:30;;;;;;;;;3.00;3.00;;;;;22.58;46.55;101338.97;4935174;28;45391;-76
2023/12/27 09:43:57;;;;;;;;;2.33;2.33;;;;;22.29;46.47;101296.16;4936530;28;45268;-77
2023/12/27 09:46:26;;;;;;;;;4.00;4.00;;;;;22.59;47.03;101349.38;4936275;28;46470;-78
2023/12/27 09:48:53;;;;;;;;;4.00;2.00;;;;;22.63;46.75;101350.72;4936412;28;45569;-77
2023/12/27 09:51:25;;;;;;;;;5.00;3.67;;;;;22.55;46.93;101334.00;4936557;28;45500;-76
2023/12/27 09:53:51;;;;;;;;;4.33;3.00;;;;;22.51;47.02;101320.25;4933900;28;45338;-76
2023/12/27 09:56:18;;;;;;;;;3.00;3.00;;;;;22.55;46.57;101326.88;4936049;28;46032;-77
2023/12/27 09:58:44;;;;;;;;;2.67;2.67;;;;;22.63;46.68;101328.66;4936587;28;45357;-77
2023/12/27 10:01:09;;;;;;;;;3.00;3.00;;;;;22.54;46.34;101319.91;4936980;28;45405;-77
2023/12/27 10:03:38;;;;;;;;;3.67;3.67;;;;;22.63;46.70;101321.53;4937223;28;45473;-77
2023/12/27 10:06:29;;;;;;;;;3.67;3.00;;;;;22.64;46.50;101325.00;4936674;28;46402;-77
2023/12/27 10:08:55;;;;;;;;;2.33;2.33;;;;;22.60;46.46;101323.69;4936633;28;45432;-75
2023/12/27 10:11:21;;;;;;;;;4.00;4.00;;;;;22.51;46.55;101306.97;4938236;28;45523;-76
2023/12/27 10:13:50;;;;;;;;;2.00;2.00;;;;;22.65;46.59;101321.34;4940237;28;45354;-77
2023/12/27 10:16:15;;;;;;;;;3.00;3.00;;;;;22.63;46.21;101316.25;4939922;28;47471;-77
2023/12/27 10:18:44;;;;;;;;;2.33;2.33;;;;;22.60;46.35;101305.13;4954613;28;50070;-77
2023/12/27 10:21:09;;;;;;;;;4.00;4.00;;;;;22.59;46.03;101304.31;4937851;28;45389;-76
2023/12/27 10:23:35;;;;;;;;;3.00;3.00;;;;;22.56;46.05;101288.72;4939422;28;45396;-78
2023/12/27 10:26:01;;;;;;;;;3.67;3.00;;;;;22.66;46.04;101295.66;4939333;28;46362;-77
2023/12/27 10:28:26;;;;;;;;;4.00;4.00;;;;;22.66;45.95;101287.72;4940027;28;45527;-76
2023/12/27 10:30:52;;;;;;;;;5.33;4.00;;;;;22.48;46.39;101262.28;4940180;28;45240;-75
2023/12/27 10:33:20;;;;;;;;;2.33;2.33;;;;;22.66;46.25;101291.19;4939951;28;45417;-78
2023/12/27 10:35:47;;;;;;;;;5.00;4.33;;;;;22.35;46.18;101242.44;4939622;28;46176;-78
2023/12/27 10:38:12;;;;;;;;;2.67;2.67;;;;;22.67;46.26;101284.03;4939448;28;45374;-78
2023/12/27 10:40:40;;;;;;;;;4.00;4.00;;;;;22.59;46.52;101267.19;4939626;28;45494;-78
2023/12/27 10:43:06;;;;;;;;;4.00;4.00;;;;;22.67;46.71;101282.22;4939948;28;45334;-77
2023/12/27 10:45:32;;;;;;;;;4.00;3.00;;;;;22.60;46.58;101263.53;4939355;28;47541;-78
2023/12/27 10:48:01;;;;;;;;;4.33;3.33;;;;;22.67;46.19;101274.25;4954561;28;45382;-78
2023/12/27 10:50:28;;;;;;;;;4.33;3.67;;;;;22.59;46.64;101261.88;4939681;28;45397;-77
2023/12/27 10:53:07;;;;;;;;;2.33;2.00;;;;;22.67;46.44;101274.25;4939109;28;45241;-77
2023/12/27 10:55:33;;;;;;;;;3.00;3.00;;;;;22.68;46.56;101273.28;4939482;28;47122;-77
2023/12/27 10:58:01;;;;;;;;;3.67;3.67;;;;;22.34;46.48;101216.09;4938096;28;45378;-76
2023/12/27 11:00:27;;;;;;;;;3.00;3.00;;;;;22.62;46.62;101256.22;4939380;28;45406;-77
2023/12/27 11:02:53;;;;;;;;;3.00;2.33;;;;;22.53;46.04;101238.72;4939549;28;45304;-77
2023/12/27 11:05:22;;;;;;;;;3.00;3.00;;;;;22.50;46.37;101215.19;4939188;28;46339;-77
2023/12/27 11:07:49;;;;;;;;;3.33;3.33;;;;;22.50;46.14;101212.53;4938995;28;45364;-76
2023/12/27 11:10:16;;;;;;;;;4.33;4.33;;;;;22.66;46.37;101232.84;4939281;28;45384;-77
2023/12/27 11:12:46;;;;;;;;;4.00;4.00;;;;;22.66;46.39;101227.53;4939019;28;45282;-77
2023/12/27 11:15:18;;;;;;;;;3.33;3.33;;;;;22.66;45.95;101232.84;4939314;28;46345;-77
2023/12/27 11:17:45;;;;;;;;;3.00;3.00;;;;;22.48;46.33;101196.78;4939153;28;45272;-77
2023/12/27 11:20:12;;;;;;;;;2.00;2.00;;;;;22.48;45.99;101194.16;4939204;28;45397;-77
2023/12/27 11:22:39;;;;;;;;;3.67;3.00;;;;;22.67;45.98;101212.44;4938254;28;45565;-76
2023/12/27 11:25:05;;;;;;;;;3.00;3.00;;;;;22.62;45.99;101212.97;4938943;28;46204;-74
2023/12/27 11:27:31;;;;;;;;;3.33;3.00;;;;;22.35;46.16;101159.44;4939034;28;45412;-77
2023/12/27 11:29:57;;;;;;;;;3.00;3.00;;;;;22.66;46.67;101205.50;4939029;28;45380;-77
2023/12/27 11:32:24;;;;;;;;;3.50;3.00;;;;;22.60;46.23;101189.28;4939164;28;45307;-77
2023/12/27 11:34:50;;;;;;;;;3.00;3.00;;;;;22.62;46.49;101183.78;4938705;28;47646;-78
2023/12/27 11:37:16;;;;;;;;;3.00;3.00;;;;;22.57;46.41;101172.88;4938496;28;45521;-77
2023/12/27 11:39:46;;;;;;;;;2.00;2.00;;;;;22.68;46.43;101182.28;4937746;28;45502;-76
2023/12/27 11:42:15;;;;;;;;;3.00;3.00;;;;;22.50;46.33;101157.69;4938954;28;45438;-77
2023/12/27 11:44:47;;;;;;;;;3.00;3.00;;;;;22.68;46.37;101169.00;4938766;28;47385;-76
2023/12/27 11:47:15;;;;;;;;;5.00;5.00;;;;;22.32;46.24;101102.31;4938723;28;45436;-77
2023/12/27 11:49:40;;;;;;;;;2.67;2.67;;;;;22.68;46.37;101158.41;4938783;28;45361;-78
2023/12/27 11:52:05;;;;;;;;;1.67;1.67;;;;;22.62;46.39;101141.34;4938375;28;45302;-78
2023/12/27 11:54:31;;;;;;;;;3.33;3.33;;;;;22.55;46.34;101130.66;4938256;28;56600;-77
2023/12/27 11:56:58;;;;;;;;;3.00;3.00;;;;;22.50;46.12;101114.44;4938639;28;45374;-78
2023/12/27 11:59:25;;;;;;;;;2.00;2.00;;;;;22.52;46.39;101107.97;4938623;28;45539;-77
2023/12/27 12:01:52;;;;;;;;;4.67;4.67;;;;;22.40;46.27;101082.88;4938550;28;45442;-78
2023/12/27 12:04:30;;;;;;;;;3.00;3.00;;;;;22.67;46.25;101139.00;4938462;28;46696;-77
2023/12/27 12:06:56;;;;;;;;;4.00;4.00;;;;;22.67;46.35;101133.69;4938040;28;45426;-76
2023/12/27 12:09:29;;;;;;;;;3.00;3.00;;;;;22.58;45.67;101113.56;4938323;28;45463;-76
2023/12/27 12:11:55;;;;;;;;;5.00;3.00;;;;;22.24;45.85;101054.66;4936791;28;45233;-77
2023/12/27 12:14:21;;;;;;;;;2.33;2.33;;;;;22.67;45.76;101115.13;4938195;28;46413;-77
2023/12/27 12:16:46;;;;;;;;;4.67;4.00;;;;;22.68;46.12;101114.13;4938401;28;45315;-77
2023/12/27 12:19:15;;;;;;;;;3.00;3.00;;;;;22.67;46.36;101107.19;4938205;28;45228;-76
2023/12/27 12:21:41;;;;;;;;;5.00;3.00;;;;;22.62;46.55;101091.81;4938110;28;45295;-77
2023/12/27 12:24:10;;;;;;;;;4.33;4.00;;;;;22.21;45.96;101017.88;4938110;28;45319;-76
2023/12/27 12:26:36;;;;;;;;;3.00;3.00;;;;;22.63;46.10;101082.84;4938234;28;45414;-77
2023/12/27 12:29:03;;;;;;;;;4.00;4.00;;;;;22.51;46.22;101058.56;4938029;28;45347;-76
2023/12/27 12:31:30;;;;;;;;;4.67;4.00;;;;;22.40;46.36;101035.94;4938290;28;45539;-76
2023/12/27 12:33:56;;;;;;;;;5.00;3.00;;;;;22.54;46.00;101060.03;4936889;28;47067;-76
2023/12/27 12:36:22;;;;;;;;;5.00;3.33;;;;;22.64;46.30;101081.00;4937680;28;45360;-77
2023/12/27 12:38:47;;;;;;;;;4.00;4.00;;;;;22.66;45.82;101078.19;4938034;28;45301;-77
2023/12/27 12:41:13;;;;;;;;;4.00;4.00;;;;;22.65;46.47;101073.88;4937904;28;45398;-77
2023/12/27 12:43:38;;;;;;;;;5.00;5.00;;;;;22.56;45.98;101050.06;4937885;28;46308;-77
2023/12/27 12:46:04;;;;;;;;;3.33;3.33;;;;;22.51;46.24;101029.41;4937872;28;45372;-76
2023/12/27 12:48:30;;;;;;;;;4.00;4.00;;;;;22.65;45.92;101056.16;4937929;28;45236;-77
2023/12/27 12:51:12;;;;;;;;;3.00;3.00;;;;;22.65;46.39;101055.31;4937627;28;45485;-76
2023/12/27 12:53:38;;;;;;;;;4.00;4.00;;;;;22.60;45.94;101042.59;4937745;28;46096;-77
2023/12/27 12:56:06;;;;;;;;;3.00;3.00;;;;;22.65;45.69;101040.22;4936591;28;45368;-78
2023/12/27 12:58:32;;;;;;;;;5.33;5.00;;;;;22.50;46.02;101011.03;4937763;28;45243;-77
2023/12/27 13:00:58;;;;;;;;;3.00;3.00;;;;;22.61;46.07;101037.09;4937858;28;45351;-76
2023/12/27 13:03:26;;;;;;;;;4.33;4.33;;;;;22.66;45.54;101038.41;4937235;28;45382;-77
2023/12/27 13:05:51;;;;;;;;;4.67;3.00;;;;;22.61;46.08;101031.00;4937730;28;45367;-76
2023/12/27 13:08:17;;;;;;;;;4.33;3.00;;;;;22.55;45.88;101011.31;4937772;28;45450;-77
2023/12/27 13:10:42;;;;;;;;;6.00;4.00;;;;;22.65;45.88;101032.28;4937533;28;45337;-77
2023/12/27 13:13:07;;;;;;;;;4.00;4.00;;;;;22.48;45.75;100997.13;4936715;28;61421;-77
2023/12/27 13:15:33;;;;;;;;;4.67;4.67;;;;;22.42;46.24;100980.13;4937659;28;45402;-77
2023/12/27 13:17:58;;;;;;;;;2.33;2.33;;;;;22.66;46.13;101010.06;4937259;28;45851;-77
2023/12/27 13:20:23;;;;;;;;;3.67;3.00;;;;;22.66;45.53;101002.13;4937587;28;45270;-77
2023/12/27 13:22:49;;;;;;;;;2.67;2.67;;;;;22.52;45.66;100971.91;4937453;28;45426;-77
2023/12/27 13:25:16;;;;;;;;;6.00;4.33;;;;;22.66;45.80;100998.63;4936931;28;45703;-75
2023/12/27 13:27:42;;;;;;;;;3.67;3.67;;;;;22.55;46.14;100970.72;4937633;28;45423;-75
2023/12/27 13:30:09;;;;;;;;;4.67;4.67;;;;;22.48;46.25;100952.88;4937131;28;45436;-75
2023/12/27 13:32:35;;;;;;;;;3.00;3.00;;;;;22.62;46.29;100968.97;4936189;28;46707;-74
2023/12/27 13:35:01;;;;;;;;;4.00;4.00;;;;;22.61;45.90;100957.56;4936673;28;45434;-74
2023/12/27 13:37:26;;;;;;;;;3.33;3.33;;;;;22.63;46.10;100949.44;4952037;28;45500;-74
2023/12/27 13:39:51;;;;;;;;;3.00;3.00;;;;;22.65;46.48;100935.97;4937255;28;45433;-75
2023/12/27 13:42:17;;;;;;;;;3.00;3.00;;;;;22.58;46.40;100942.03;4937038;28;46056;-74
2023/12/27 13:44:42;;;;;;;;;3.67;3.33;;;;;22.58;46.29;100933.25;4937257;28;45421;-74
2023/12/27 13:47:08;;;;;;;;;3.00;3.00;;;;;22.58;46.02;100919.97;4940034;28;45378;-74
2023/12/27 13:49:35;;;;;;;;;3.00;3.00;;;;;22.31;46.18;100879.81;4940685;28;45471;-73
2023/12/27 13:52:00;;;;;;;;;2.00;2.00;;;;;22.57;45.96;100919.16;4940444;28;46598;-74
2023/12/27 13:54:26;;;;;;;;;3.33;3.00;;;;;22.62;45.98;100921.25;4939997;28;52012;-73
2023/12/27 13:56:51;;;;;;;;;3.33;3.33;;;;;22.36;46.59;100872.13;4940702;28;45315;-74
2023/12/27 13:59:16;;;;;;;;;3.67;2.67;;;;;22.63;46.51;100915.78;4940397;28;45230;-74
2023/12/27 14:01:42;;;;;;;;;3.67;3.67;;;;;22.62;46.16;100911.47;4939821;28;50117;-74
2023/12/27 14:04:07;;;;;;;;;5.67;4.00;;;;;22.65;46.32;100909.47;4940354;28;45386;-74
2023/12/27 14:06:36;;;;;;;;;2.33;2.33;;;;;22.62;46.40;100903.53;4940397;28;45311;-73
2023/12/27 14:09:03;;;;;;;;;5.67;4.00;;;;;22.60;45.93;100894.94;4940147;28;45291;-73
2023/12/27 14:11:29;;;;;;;;;0.33;0.33;;;;;22.47;46.37;100869.06;4940048;28;47512;-74
2023/12/27 14:13:54;;;;;;;;;3.00;3.00;;;;;22.58;46.03;100878.38;4939931;28;45575;-74
2023/12/27 14:16:19;;;;;;;;;4.00;3.00;;;;;22.62;46.27;100884.13;4939841;28;45255;-75
2023/12/27 14:18:45;;;;;;;;;4.67;4.67;;;;;22.61;46.04;100872.69;4940245;28;45333;-74
2023/12/27 14:21:10;;;;;;;;;3.33;3.33;;;;;22.62;46.44;100874.34;4939808;28;46874;-73
2023/12/27 14:23:35;;;;;;;;;4.00;4.00;;;;;22.62;45.96;100882.31;4940196;28;45402;-75
2023/12/27 14:26:02;;;;;;;;;3.00;3.00;;;;;22.63;46.02;100877.84;4940064;28;45360;-76
2023/12/27 14:28:27;;;;;;;;;3.00;3.00;;;;;22.55;46.17;100848.75;4940034;28;45413;-75
2023/12/27 14:30:53;;;;;;;;;4.67;4.67;;;;;22.60;46.32;100849.03;4939358;28;46056;-75
2023/12/27 14:33:18;;;;;;;;;2.00;2.00;;;;;22.63;46.35;100854.78;4939965;28;45477;-75
2023/12/27 14:35:44;;;;;;;;;5.00;5.00;;;;;22.42;46.22;100823.72;4940011;28;45486;-76
2023/12/27 14:38:09;;;;;;;;;4.33;4.00;;;;;22.52;45.94;100836.69;4939936;28;45342;-76
2023/12/27 14:40:35;;;;;;;;;3.00;3.00;;;;;22.45;46.25;100806.63;4939492;28;45475;-76
2023/12/27 14:43:00;;;;;;;;;3.67;3.67;;;;;22.27;46.07;100808.63;4939700;28;45486;-76
2023/12/27 14:45:26;;;;;;;;;4.00;4.00;;;;;22.54;46.24;100834.66;4939647;28;45700;-75
2023/12/27 14:47:51;;;;;;;;;3.00;3.00;;;;;22.35;46.33;100809.56;4939808;28;45365;-76
2023/12/27 14:50:16;;;;;;;;;3.00;3.00;;;;;22.53;46.01;100833.03;4939636;28;46019;-75
2023/12/27 14:52:42;;;;;;;;;2.67;2.67;;;;;22.34;46.02;100803.41;4939617;28;45246;-75
2023/12/27 14:55:10;;;;;;;;;2.67;2.67;;;;;22.55;46.26;100830.19;4939642;28;45422;-76
2023/12/27 14:57:35;;;;;;;;;3.33;3.33;;;;;22.58;46.30;100827.19;4953659;28;45346;-74
2023/12/27 15:00:01;;;;;;;;;4.00;4.00;;;;;22.57;46.32;100825.53;4938752;28;45398;-74
2023/12/27 15:02:26;;;;;;;;;3.67;3.67;;;;;22.59;46.48;100816.38;4939500;28;45410;-75
2023/12/27 15:04:51;;;;;;;;;3.00;3.00;;;;;22.40;46.57;100793.91;4939580;28;45536;-76
2023/12/27 15:07:17;;;;;;;;;2.67;2.67;;;;;22.42;46.55;100805.16;4939354;28;45335;-75
2023/12/27 15:09:42;;;;;;;;;4.00;3.00;;;;;22.57;46.64;100815.75;4939161;28;45937;-76
2023/12/27 15:12:07;;;;;;;;;3.67;2.67;;;;;22.61;46.15;100824.97;4938882;28;47341;-75
2023/12/27 15:14:33;;;;;;;;;5.00;3.00;;;;;22.60;46.33;100814.53;4938932;28;45278;-74
2023/12/27 15:16:58;;;;;;;;;3.00;3.00;;;;;22.40;46.30;100767.41;4939525;28;45268;-76
2023/12/27 15:19:24;;;;;;;;;4.00;2.67;;;;;22.61;46.07;100795.00;4938591;28;56960;-75
2023/12/27 15:21:49;;;;;;;;;6.67;4.00;;;;;22.52;46.43;100792.44;4939115;28;45389;-75
2023/12/27 15:24:14;;;;;;;;;6.67;3.00;;;;;22.61;46.60;100808.25;4939542;28;45356;-75
2023/12/27 15:26:40;;;;;;;;;5.00;4.00;;;;;22.61;46.34;100808.25;4938680;28;56467;-76
2023/12/27 15:29:05;;;;;;;;;5.33;5.33;;;;;22.51;46.16;100796.09;4938771;28;45470;-75
2023/12/27 15:31:32;;;;;;;;;4.00;4.00;;;;;22.54;46.40;100802.03;4938954;28;45317;-75
2023/12/27 15:33:58;;;;;;;;;2.00;2.00;;;;;22.58;46.55;100793.53;4939261;28;45372;-75
2023/12/27 15:36:24;;;;;;;;;3.00;3.00;;;;;22.60;46.32;100790.69;4938991;28;45348;-76
2023/12/27 15:38:52;;;;;;;;;3.00;3.00;;;;;22.52;46.56;100773.88;4938649;28;47471;-76
2023/12/27 15:41:25;;;;;;;;;3.00;3.00;;;;;22.51;46.20;100785.47;4938725;28;45483;-76
2023/12/27 15:43:52;;;;;;;;;4.67;2.33;;;;;22.59;45.80;100776.59;4938443;28;45275;-76
2023/12/27 15:46:19;;;;;;;;;3.67;3.67;;;;;22.48;45.88;100763.84;4938881;28;45421;-75
2023/12/27 15:48:45;;;;;;;;;3.33;3.33;;;;;22.65;46.01;100790.13;4938699;28;46297;-76
2023/12/27 15:51:20;;;;;;;;;4.00;4.00;;;;;22.61;46.38;100768.47;4938560;28;45495;-76
2023/12/27 15:53:46;;;;;;;;;4.00;4.00;;;;;22.64;45.82;100776.03;4938862;28;45416;-75
2023/12/27 15:56:23;;;;;;;;;3.67;3.67;;;;;22.63;46.36;100779.72;4938544;28;45560;-75
2023/12/27 15:58:52;;;;;;;;;5.00;3.00;;;;;22.65;46.31;100793.59;4938199;28;46364;-76
2023/12/27 16:01:19;;;;;;;;;5.00;3.33;;;;;22.63;46.47;100812.38;4938462;28;45444;-76
2023/12/27 16:03:44;;;;;;;;;3.00;3.00;;;;;22.66;46.27;100813.81;4938545;28;45446;-76
2023/12/27 16:06:10;;;;;;;;;2.33;2.33;;;;;22.54;45.92;100833.84;4938621;28;45358;-75
2023/12/27 16:08:35;;;;;;;;;3.33;3.33;;;;;22.67;45.71;100823.41;4938241;28;46981;-74
2023/12/27 16:11:01;;;;;;;;;4.67;4.67;;;;;22.67;45.75;100822.56;4937748;28;59681;-74
2023/12/27 16:13:27;;;;;;;;;3.00;3.00;;;;;22.68;46.11;100829.53;4937999;28;45235;-74
2023/12/27 16:15:52;;;;;;;;;3.00;3.00;;;;;22.63;46.04;100825.63;4938424;28;45329;-74
2023/12/27 16:18:17;;;;;;;;;3.00;3.00;;;;;22.50;45.96;100805.06;4938132;28;47243;-74
2023/12/27 16:20:43;;;;;;;;;4.33;3.33;;;;;22.66;45.79;100807.69;4938076;28;49065;-74
2023/12/27 16:23:08;;;;;;;;;2.67;2.67;;;;;22.61;45.57;100814.34;4937213;28;45401;-74
2023/12/27 16:25:34;;;;;;;;;3.67;3.67;;;;;22.53;45.69;100793.25;4938332;28;45350;-74
2023/12/27 16:27:59;;;;;;;;;3.00;2.33;;;;;22.52;46.17;100786.31;4937881;28;46184;-74
2023/12/27 16:30:24;;;;;;;;;3.00;2.00;;;;;22.54;46.35;100784.28;4936672;28;52684;-74
2023/12/27 16:32:50;;;;;;;;;3.00;2.00;;;;;22.63;46.36;100800.94;4938332;28;45300;-72
2023/12/27 16:35:15;;;;;;;;;2.33;2.33;;;;;22.63;45.75;100816.84;4938189;28;45283;-75
2023/12/27 16:37:43;;;;;;;;;3.00;3.00;;;;;22.64;46.21;100799.91;4938098;28;46395;-75
2023/12/27 16:40:09;;;;;;;;;3.00;3.00;;;;;22.65;45.94;100811.34;4937848;28;45334;-74
2023/12/27 16:42:34;;;;;;;;;2.00;2.00;;;;;22.58;45.90;100800.66;4937746;28;45479;-74
2023/12/27 16:44:59;;;;;;;;;4.00;4.00;;;;;22.65;45.89;100790.13;4938192;28;45349;-74
2023/12/27 16:47:24;;;;;;;;;3.00;2.67;;;;;22.65;45.93;100800.72;4937675;28;55550;-73
2023/12/27 16:49:50;;;;;;;;;2.33;2.33;;;;;22.56;46.09;100763.69;4938043;28;45259;-75
2023/12/27 16:52:15;;;;;;;;;4.67;3.00;;;;;22.50;45.72;100775.91;4937963;28;45422;-75
2023/12/27 16:54:41;;;;;;;;;2.00;2.00;;;;;22.63;45.93;100787.66;4937503;28;52359;-75
2023/12/27 16:57:06;;;;;;;;;2.67;2.67;;;;;22.63;46.01;100790.31;4937523;28;46512;-74
2023/12/27 16:59:31;;;;;;;;;5.33;3.33;;;;;22.63;46.17;100787.66;4937689;28;45350;-74
2023/12/27 17:01:57;;;;;;;;;2.00;2.00;;;;;22.62;46.11;100788.66;4937854;28;45398;-74
2023/12/27 17:04:24;;;;;;;;;2.67;2.67;;;;;22.62;45.76;100800.09;4937848;28;45442;-74
2023/12/27 17:06:49;;;;;;;;;2.33;2.33;;;;;22.63;46.00;100798.28;4937483;28;46427;-74
2023/12/27 17:09:15;;;;;;;;;4.00;3.00;;;;;22.56;46.16;100782.25;4936988;28;55507;-74
2023/12/27 17:11:40;;;;;;;;;4.00;3.00;;;;;22.63;45.96;100780.53;4937235;28;45374;-74
2023/12/27 17:14:05;;;;;;;;;2.67;2.67;;;;;22.61;46.25;100781.72;4937610;28;45286;-73
2023/12/27 17:16:31;;;;;;;;;2.33;2.33;;;;;22.50;45.76;100762.63;4937547;28;45395;-74
2023/12/27 17:18:56;;;;;;;;;3.67;3.67;;;;;22.56;46.20;100766.34;4935757;28;56859;-74
2023/12/27 17:21:22;;;;;;;;;4.00;4.00;;;;;22.66;45.60;100762.59;4936958;28;45350;-74
2023/12/27 17:23:47;;;;;;;;;3.00;3.00;;;;;22.50;46.03;100752.03;4937530;28;45333;-74
2023/12/27 17:26:12;;;;;;;;;1.67;1.67;;;;;22.55;46.03;100754.13;4937197;28;45500;-73
2023/12/27 17:28:38;;;;;;;;;3.33;3.33;;;;;22.51;45.99;100743.06;4937395;28;45383;-71
2023/12/27 17:31:04;;;;;;;;;2.33;2.33;;;;;22.65;45.76;100777.69;4937350;28;45378;-75
2023/12/27 17:33:29;;;;;;;;;3.00;2.67;;;;;22.54;46.19;100741.03;4937434;28;45506;-75
2023/12/27 17:35:55;;;;;;;;;2.33;2.33;;;;;22.66;46.19;100768.75;4937174;28;47056;-75
2023/12/27 17:38:21;;;;;;;;;3.67;3.67;;;;;22.37;45.70;100750.03;4937109;28;45354;-75
2023/12/27 17:40:47;;;;;;;;;6.00;3.00;;;;;22.63;45.56;100785.84;4936777;28;45388;-76
2023/12/27 17:43:12;;;;;;;;;2.67;2.67;;;;;22.46;45.87;100771.13;4937283;28;45538;-75
2023/12/27 17:45:39;;;;;;;;;3.00;3.00;;;;;22.56;45.56;100776.16;4937098;28;46261;-74
2023/12/27 17:48:04;;;;;;;;;2.00;2.00;;;;;22.66;46.14;100791.78;4937182;28;45347;-74
2023/12/27 17:50:30;;;;;;;;;4.00;2.33;;;;;22.48;45.95;100785.03;4937199;28;45665;-75
2023/12/27 17:52:55;;;;;;;;;5.00;4.00;;;;;22.64;45.83;100813.16;4937260;28;45399;-75
2023/12/27 17:55:20;;;;;;;;;4.33;3.33;;;;;22.61;45.53;100818.84;4936460;28;51258;-74
2023/12/27 17:57:46;;;;;;;;;4.00;1.67;;;;;22.49;45.52;100799.94;4937010;28;45304;-75
2023/12/27 18:00:13;;;;;;;;;2.33;2.33;;;;;22.62;45.61;100833.75;4937129;28;45295;-75
2023/12/27 18:02:38;;;;;;;;;4.00;3.33;;;;;22.61;46.18;100800.28;4937040;28;45621;-75
2023/12/27 18:05:04;;;;;;;;;1.33;1.33;;;;;22.49;46.26;100799.94;4936784;28;45895;-75
2023/12/27 18:07:29;;;;;;;;;6.00;3.33;;;;;22.48;45.88;100822.16;4936920;28;45346;-75
2023/12/27 18:09:54;;;;;;;;;2.00;2.00;;;;;22.29;46.47;100792.53;4936389;28;45321;-76
2023/12/27 18:12:20;;;;;;;;;2.33;2.33;;;;;22.62;46.24;100844.34;4936616;28;45493;-76
2023/12/27 18:14:46;;;;;;;;;5.00;4.00;;;;;22.55;46.07;100830.19;4936450;28;54671;-75
2023/12/27 18:17:12;;;;;;;;;2.00;2.00;;;;;22.61;46.45;100838.22;4936727;28;45426;-76
2023/12/27 18:19:38;;;;;;;;;3.00;3.00;;;;;22.50;46.17;100806.88;4936712;28;45616;-75
2023/12/27 18:22:05;;;;;;;;;3.00;3.00;;;;;22.61;46.70;100824.97;4936838;28;45481;-76
2023/12/27 18:24:32;;;;;;;;;3.00;3.00;;;;;22.57;46.38;100805.13;4936498;28;46422;-76
2023/12/27 18:26:57;;;;;;;;;2.00;2.00;;;;;22.61;46.26;100809.06;4936672;28;45760;-76
2023/12/27 18:29:24;;;;;;;;;3.00;3.00;;;;;22.50;46.52;100797.09;4936678;28;45365;-75
2023/12/27 18:31:50;;;;;;;;;3.00;3.00;;;;;22.58;46.55;100821.88;4936666;28;45314;-75
2023/12/27 18:34:15;;;;;;;;;3.33;3.33;;;;;22.61;45.93;100832.13;4939712;28;46032;-75
2023/12/27 18:36:41;;;;;;;;;5.00;3.00;;;;;22.61;46.54;100827.59;4939626;28;45445;-75
2023/12/27 18:39:07;;;;;;;;;4.00;3.00;;;;;22.58;45.98;100820.03;4939957;28;45413;-76
2023/12/27 18:41:33;;;;;;;;;3.00;3.00;;;;;22.57;46.33;100809.59;4939930;28;45406;-76
2023/12/27 18:43:58;;;;;;;;;2.67;2.67;;;;;22.61;46.57;100830.25;4939517;28;47076;-76
2023/12/27 18:46:24;;;;;;;;;2.00;2.00;;;;;22.46;46.12;100806.41;4939809;28;45399;-75
2023/12/27 18:48:49;;;;;;;;;2.00;2.00;;;;;22.52;45.85;100820.78;4939166;28;60235;-74
2023/12/27 18:51:14;;;;;;;;;3.67;2.33;;;;;22.61;45.79;100832.13;4939448;28;45328;-76
2023/12/27 18:53:40;;;;;;;;;2.67;2.67;;;;;22.60;46.53;100833.94;4939547;28;46852;-75
2023/12/27 18:56:06;;;;;;;;;3.67;2.67;;;;;22.60;46.53;100835.75;4939488;28;45301;-76
2023/12/27 18:58:31;;;;;;;;;2.33;2.33;;;;;22.58;46.11;100827.19;4939618;28;45389;-76
2023/12/27 19:00:59;;;;;;;;;4.67;4.00;;;;;22.59;46.54;100840.25;4939581;28;45374;-75
2023/12/27 19:03:24;;;;;;;;;3.67;3.67;;;;;22.60;46.34;100835.75;4939426;28;46449;-76
2023/12/27 19:05:50;;;;;;;;;2.67;2.67;;;;;22.49;46.65;100832.56;4938983;28;45331;-75
2023/12/27 19:08:16;;;;;;;;;3.33;3.33;;;;;22.59;46.31;100850.84;4939435;28;45353;-76
2023/12/27 19:10:41;;;;;;;;;2.00;2.00;;;;;22.59;46.54;100845.53;4939260;28;45524;-75
2023/12/27 19:13:06;;;;;;;;;2.67;2.67;;;;;22.55;46.31;100840.78;4938924;28;46429;-75
2023/12/27 19:15:32;;;;;;;;;2.00;2.00;;;;;22.25;45.96;100799.22;4938720;28;63742;-76
2023/12/27 19:17:57;;;;;;;;;2.00;2.00;;;;;22.59;46.08;100860.63;4939412;28;45458;-75
2023/12/27 19:20:23;;;;;;;;;4.33;2.67;;;;;22.49;46.29;100850.31;4938375;28;52755;-76
2023/12/27 19:22:48;;;;;;;;;1.67;1.67;;;;;22.28;46.32;100807.63;4939160;28;47116;-75
2023/12/27 19:25:14;;;;;;;;;2.00;2.00;;;;;22.29;46.12;100803.97;4938139;28;45291;-76
2023/12/27 19:27:40;;;;;;;;;3.33;3.33;;;;;22.56;46.22;100859.16;4939138;28;45460;-76
2023/12/27 19:30:06;;;;;;;;;2.67;2.67;;;;;22.60;46.73;100873.72;4939073;28;45489;-76
2023/12/27 19:32:31;;;;;;;;;2.33;2.33;;;;;22.51;46.76;100870.31;4938663;28;46518;-74
2023/12/27 19:34:57;;;;;;;;;3.67;3.67;;;;;22.55;46.90;100883.22;4937111;28;52791;-76
2023/12/27 19:37:22;;;;;;;;;2.33;2.33;;;;;22.41;47.03;100864.47;4938812;28;50579;-76
2023/12/27 19:39:48;;;;;;;;;2.00;2.00;;;;;22.48;46.75;100881.28;4938670;28;45528;-75
2023/12/27 19:42:14;;;;;;;;;2.67;2.67;;;;;22.39;46.75;100877.09;4938771;28;46159;-77
2023/12/27 19:44:40;;;;;;;;;2.67;2.67;;;;;22.42;46.99;100881.19;4938372;28;45378;-75
2023/12/27 19:47:07;;;;;;;;;4.00;2.00;;;;;22.60;47.27;100910.00;4938978;28;45453;-75
2023/12/27 19:49:33;;;;;;;;;4.00;3.00;;;;;22.60;47.03;100904.72;4938518;28;45288;-77
2023/12/27 19:52:15;;;;;;;;;3.00;3.00;;;;;22.60;46.55;100913.50;4938660;28;45473;-76
2023/12/27 19:54:41;;;;;;;;;4.00;4.00;;;;;22.52;46.84;100916.22;4938714;28;45405;-76
2023/12/27 19:57:06;;;;;;;;;3.00;3.00;;;;;22.61;47.14;100933.69;4938633;28;45338;-76
2023/12/27 19:59:37;;;;;;;;;5.67;4.00;;;;;22.55;47.13;100921.16;4938714;28;45360;-75
2023/12/27 20:02:02;;;;;;;;;4.67;3.67;;;;;22.62;47.12;100931.84;4938307;28;46523;-76
2023/12/27 20:04:28;;;;;;;;;4.00;3.00;;;;;22.63;46.74;100941.47;4938277;28;45457;-76
2023/12/27 20:06:54;;;;;;;;;2.33;2.33;;;;;22.43;46.73;100904.88;4938746;28;45387;-74
2023/12/27 20:09:19;;;;;;;;;2.33;2.33;;;;;22.60;46.81;100945.31;4938209;28;45374;-74
2023/12/27 20:11:44;;;;;;;;;3.00;3.00;;;;;22.66;46.66;100948.25;4938102;28;49673;-75
2023/12/27 20:14:10;;;;;;;;;4.00;2.67;;;;;22.66;46.48;100941.13;4938361;28;45422;-74
2023/12/27 20:16:35;;;;;;;;;0.00;0.00;;;;;22.67;46.65;100944.56;4938426;28;45275;-77
2023/12/27 20:19:00;;;;;;;;;3.67;3.67;;;;;22.58;46.89;100930.59;4938087;28;45292;-76
2023/12/27 20:21:28;;;;;;;;;4.00;2.33;;;;;22.66;46.96;100933.16;4937464;28;66830;-75
2023/12/27 20:23:53;;;;;;;;;3.00;3.00;;;;;22.66;46.68;100942.94;4938340;28;45413;-75
2023/12/27 20:26:19;;;;;;;;;4.00;4.00;;;;;22.59;46.70;100930.41;4938371;28;45322;-75
2023/12/27 20:28:44;;;;;;;;;2.67;2.67;;;;;22.28;46.93;100889.78;4938257;28;45264;-76